createdAt,value
2019-04-16T00:00:55.226Z,99.99
2019-04-16T00:01:55.253Z,99.99
2019-04-16T00:02:55.280Z,99.99
2019-04-16T00:03:55.307Z,99.99
2019-04-16T00:04:56.748Z,99.99
2019-04-16T00:05:58.645Z,99.99
2019-04-16T00:06:55.392Z,99.99
2019-04-16T00:07:55.422Z,99.99
2019-04-16T00:08:57.238Z,99.99
2019-04-16T00:09:55.632Z,99.99
2019-04-16T00:10:55.658Z,99.99
2019-04-16T00:11:55.530Z,99.99
2019-04-16T00:12:55.558Z,99.99
2019-04-16T00:13:55.587Z,99.99
2019-04-16T00:14:55.621Z,99.99
2019-04-16T00:15:55.644Z,99.99
2019-04-16T00:16:55.864Z,99.99
2019-04-16T00:17:55.699Z,99.99
2019-04-16T00:18:57.840Z,99.99
2019-04-16T00:19:55.755Z,99.99
2019-04-16T00:20:55.785Z,99.99
2019-04-16T00:21:55.811Z,99.99
2019-04-16T00:22:55.838Z,99.99
2019-04-16T00:23:55.873Z,99.99
2019-04-16T00:24:55.897Z,99.99
2019-04-16T00:25:56.483Z,99.99
2019-04-16T00:26:59.325Z,99.99
2019-04-16T00:27:59.552Z,99.99
2019-04-16T00:28:56.010Z,99.99
2019-04-16T00:29:56.047Z,99.99
2019-04-16T00:30:56.065Z,99.99
2019-04-16T00:31:56.094Z,99.99
2019-04-16T00:32:56.122Z,99.99
2019-04-16T00:33:56.150Z,99.99
2019-04-16T00:34:56.178Z,99.99
2019-04-16T00:35:56.209Z,99.99
2019-04-16T00:36:56.235Z,99.99
2019-04-16T00:37:56.263Z,99.99
2019-04-16T00:38:56.290Z,99.99
2019-04-16T00:39:56.969Z,99.99
2019-04-16T00:41:00.752Z,99.99
2019-04-16T00:41:56.374Z,99.99
2019-04-16T00:42:56.407Z,99.99
2019-04-16T00:43:56.432Z,99.99
2019-04-16T00:44:56.463Z,99.99
2019-04-16T00:45:56.492Z,99.99
2019-04-16T00:46:56.706Z,99.99
2019-04-16T00:47:56.544Z,99.99
2019-04-16T00:48:56.580Z,99.99
2019-04-16T00:49:58.820Z,99.99
2019-04-16T00:50:56.633Z,99.99
2019-04-16T00:51:56.658Z,99.99
2019-04-16T00:52:56.686Z,99.99
2019-04-16T00:53:56.965Z,99.99
2019-04-16T00:54:56.976Z,99.99
2019-04-16T00:55:56.784Z,99.99
2019-04-16T00:56:56.800Z,99.99
2019-04-16T00:57:56.826Z,99.99
2019-04-16T00:58:56.855Z,99.99
2019-04-16T00:59:57.022Z,99.99
2019-04-16T01:00:56.974Z,99.99
2019-04-16T01:01:56.940Z,99.99
2019-04-16T01:02:56.967Z,99.99
2019-04-16T01:03:57.000Z,99.99
2019-04-16T01:04:57.029Z,99.99
2019-04-16T01:05:57.053Z,99.99
2019-04-16T01:06:57.081Z,99.99
2019-04-16T01:07:57.109Z,99.99
2019-04-16T01:08:57.140Z,99.99
2019-04-16T01:09:57.165Z,99.99
2019-04-16T01:10:57.197Z,99.99
2019-04-16T01:11:57.224Z,99.99
2019-04-16T01:12:57.252Z,99.99
2019-04-16T01:13:57.278Z,99.99
2019-04-16T01:15:00.686Z,99.99
2019-04-16T01:15:57.335Z,99.99
2019-04-16T01:16:57.363Z,99.99
2019-04-16T01:17:57.393Z,99.99
2019-04-16T01:18:57.422Z,99.99
2019-04-16T01:19:57.450Z,99.99
2019-04-16T01:20:57.500Z,99.99
2019-04-16T01:21:57.507Z,99.99
2019-04-16T01:22:57.533Z,99.99
2019-04-16T01:23:57.561Z,99.99
2019-04-16T01:24:57.591Z,99.99
2019-04-16T01:25:57.630Z,99.99
2019-04-16T01:26:58.203Z,99.99
2019-04-16T01:28:00.972Z,99.99
2019-04-16T01:29:00.203Z,99.99
2019-04-16T01:29:57.732Z,99.99
2019-04-16T01:30:57.760Z,99.99
2019-04-16T01:31:57.827Z,99.99
2019-04-16T01:32:57.817Z,99.99
2019-04-16T01:33:57.847Z,99.99
2019-04-16T01:34:57.876Z,99.99
2019-04-16T01:35:57.916Z,99.99
2019-04-16T01:36:57.930Z,99.99
2019-04-16T01:37:57.986Z,99.99
2019-04-16T01:39:14.725Z,99.99
2019-04-16T01:39:58.017Z,99.99
2019-04-16T01:40:58.043Z,99.99
2019-04-16T01:41:58.074Z,99.99
2019-04-16T01:42:58.101Z,99.99
2019-04-16T01:43:58.435Z,99.99
2019-04-16T01:44:59.787Z,99.99
2019-04-16T01:46:00.855Z,99.99
2019-04-16T01:46:58.220Z,99.99
2019-04-16T01:47:58.257Z,99.99
2019-04-16T01:48:58.317Z,99.99
2019-04-16T01:49:58.302Z,99.99
2019-04-16T01:50:58.326Z,99.99
2019-04-16T01:51:58.357Z,99.99
2019-04-16T01:52:58.384Z,99.99
2019-04-16T01:53:58.527Z,99.99
2019-04-16T01:54:58.605Z,99.99
2019-04-16T01:55:58.627Z,99.99
2019-04-16T01:56:59.904Z,99.99
2019-04-16T01:57:59.627Z,99.99
2019-04-16T01:58:58.661Z,99.99
2019-04-16T01:59:58.763Z,99.99
2019-04-16T02:00:58.737Z,99.99
2019-04-16T02:01:58.638Z,99.99
2019-04-16T02:02:58.666Z,99.99
2019-04-16T02:03:59.006Z,99.99
2019-04-16T02:04:58.725Z,99.99
2019-04-16T02:05:58.751Z,99.99
2019-04-16T02:06:58.780Z,99.99
2019-04-16T02:07:59.912Z,99.99
2019-04-16T02:09:01.846Z,99.99
2019-04-16T02:09:58.864Z,99.99
2019-04-16T02:10:58.900Z,99.99
2019-04-16T02:11:58.928Z,99.99
2019-04-16T02:12:58.952Z,99.99
2019-04-16T02:13:58.981Z,99.99
2019-04-16T02:14:59.012Z,99.99
2019-04-16T02:15:59.034Z,99.99
2019-04-16T02:16:59.067Z,99.99
2019-04-16T02:17:59.952Z,99.99
2019-04-16T02:19:01.254Z,99.99
2019-04-16T02:20:02.106Z,99.99
2019-04-16T02:20:59.181Z,99.99
2019-04-16T02:21:59.205Z,99.99
2019-04-16T02:22:59.235Z,99.99
2019-04-16T02:23:59.265Z,99.99
2019-04-16T02:24:59.296Z,99.99
2019-04-16T02:25:59.318Z,99.99
2019-04-16T02:26:59.355Z,99.99
2019-04-16T02:27:59.378Z,99.99
2019-04-16T02:28:59.622Z,99.99
2019-04-16T02:30:02.938Z,99.99
2019-04-16T02:30:59.461Z,99.99
2019-04-16T02:31:59.489Z,99.99
2019-04-16T02:32:59.520Z,99.99
2019-04-16T02:33:59.545Z,99.99
2019-04-16T02:34:59.575Z,99.99
2019-04-16T02:35:59.606Z,99.99
2019-04-16T02:37:02.491Z,99.99
2019-04-16T02:37:59.659Z,99.99
2019-04-16T02:38:59.693Z,99.99
2019-04-16T02:39:59.717Z,99.99
2019-04-16T02:40:59.743Z,99.99
2019-04-16T02:41:59.773Z,99.99
2019-04-16T02:43:04.176Z,99.99
2019-04-16T02:43:59.828Z,99.99
2019-04-16T02:44:59.858Z,99.99
2019-04-16T02:45:59.891Z,99.99
2019-04-16T02:47:05.476Z,99.99
2019-04-16T02:47:59.942Z,99.99
2019-04-16T02:48:59.971Z,99.99
2019-04-16T02:49:59.999Z,99.99
2019-04-16T02:51:05.277Z,99.99
2019-04-16T02:52:00.058Z,99.99
2019-04-16T02:53:00.091Z,99.99
2019-04-16T02:54:00.199Z,99.99
2019-04-16T02:55:07.660Z,99.99
2019-04-16T02:56:00.167Z,99.99
2019-04-16T02:57:00.198Z,99.99
2019-04-16T02:58:01.872Z,99.99
2019-04-16T02:59:00.254Z,99.99
2019-04-16T03:00:00.282Z,99.99
2019-04-16T03:01:00.308Z,99.99
2019-04-16T03:02:00.338Z,99.99
2019-04-16T03:03:00.362Z,99.99
2019-04-16T03:04:00.392Z,99.99
2019-04-16T03:05:00.433Z,99.99
2019-04-16T03:06:00.942Z,99.99
2019-04-16T03:07:03.233Z,99.99
2019-04-16T03:08:01.549Z,99.99
2019-04-16T03:09:00.534Z,99.99
2019-04-16T03:10:01.963Z,99.99
2019-04-16T03:11:00.590Z,99.99
2019-04-16T03:12:00.620Z,99.99
2019-04-16T03:13:00.650Z,99.99
2019-04-16T03:14:00.676Z,99.99
2019-04-16T03:15:01.867Z,99.99
2019-04-16T03:16:02.869Z,99.99
2019-04-16T03:17:00.788Z,99.99
2019-04-16T03:18:00.790Z,99.99
2019-04-16T03:19:00.821Z,99.99
2019-04-16T03:20:00.848Z,99.99
2019-04-16T03:21:00.877Z,99.99
2019-04-16T03:22:02.181Z,99.99
2019-04-16T03:23:05.311Z,99.99
2019-04-16T03:24:00.961Z,99.99
2019-04-16T03:25:00.991Z,99.99
2019-04-16T03:26:01.020Z,99.99
2019-04-16T03:27:04.321Z,99.99
2019-04-16T03:28:01.078Z,99.99
2019-04-16T03:29:01.107Z,99.99
2019-04-16T03:30:03.550Z,99.99
2019-04-16T03:31:01.161Z,99.99
2019-04-16T03:32:01.205Z,99.99
2019-04-16T03:33:10.427Z,99.99
2019-04-16T03:34:01.256Z,99.99
2019-04-16T03:35:01.275Z,99.99
2019-04-16T03:36:01.304Z,99.99
2019-04-16T03:37:01.899Z,99.99
2019-04-16T03:38:01.683Z,99.99
2019-04-16T03:39:01.391Z,99.99
2019-04-16T03:40:14.466Z,99.99
2019-04-16T03:41:01.450Z,99.99
2019-04-16T03:42:01.479Z,99.99
2019-04-16T03:43:04.039Z,99.99
2019-04-16T03:44:04.116Z,99.99
2019-04-16T03:45:01.563Z,99.99
2019-04-16T03:46:01.591Z,99.99
2019-04-16T03:47:01.620Z,99.99
2019-04-16T03:48:01.657Z,99.99
2019-04-16T03:49:01.678Z,99.99
2019-04-16T03:50:01.707Z,99.99
2019-04-16T03:51:03.656Z,99.99
2019-04-16T03:52:04.829Z,99.99
2019-04-16T03:53:01.793Z,99.99
2019-04-16T03:54:04.751Z,99.99
2019-04-16T03:55:01.855Z,99.99
2019-04-16T03:56:01.877Z,99.99
2019-04-16T03:57:02.806Z,99.99
2019-04-16T03:58:05.250Z,99.99
2019-04-16T03:59:01.963Z,99.99
2019-04-16T04:00:02.116Z,99.99
2019-04-16T04:01:02.023Z,99.99
2019-04-16T04:02:02.053Z,99.99
2019-04-16T04:03:02.078Z,99.99
2019-04-16T04:04:02.112Z,99.99
2019-04-16T04:05:06.380Z,99.99
2019-04-16T04:06:03.550Z,99.99
2019-04-16T04:07:02.196Z,99.99
2019-04-16T04:08:02.228Z,99.99
2019-04-16T04:09:02.255Z,99.99
2019-04-16T04:10:02.279Z,99.99
2019-04-16T04:11:02.309Z,99.99
2019-04-16T04:12:02.337Z,99.99
2019-04-16T04:13:04.891Z,99.99
2019-04-16T04:14:02.397Z,99.99
2019-04-16T04:15:02.426Z,99.99
2019-04-16T04:16:02.456Z,99.99
2019-04-16T04:17:05.679Z,99.99
2019-04-16T04:18:02.524Z,99.99
2019-04-16T04:19:02.546Z,99.99
2019-04-16T04:20:02.571Z,99.99
2019-04-16T04:21:02.604Z,99.99
2019-04-16T04:22:02.630Z,99.99
2019-04-16T04:23:02.667Z,99.99
2019-04-16T04:24:02.689Z,99.99
2019-04-16T04:25:04.523Z,99.99
2019-04-16T04:26:05.508Z,99.16
2019-04-16T04:27:02.775Z,98.68
2019-04-16T04:28:02.808Z,98.49
2019-04-16T04:29:06.023Z,98.40
2019-04-16T04:30:02.865Z,97.92
2019-04-16T04:31:02.897Z,97.74
2019-04-16T04:32:03.618Z,98.11
2019-04-16T04:33:07.408Z,97.26
2019-04-16T04:34:02.983Z,97.17
2019-04-16T04:35:03.014Z,98.11
2019-04-16T04:36:03.043Z,97.17
2019-04-16T04:37:03.075Z,96.31
2019-04-16T04:38:04.229Z,95.93
2019-04-16T04:39:03.134Z,96.12
2019-04-16T04:40:03.173Z,97.17
2019-04-16T04:41:03.194Z,95.65
2019-04-16T04:42:03.224Z,94.03
2019-04-16T04:43:03.251Z,94.13
2019-04-16T04:44:04.551Z,94.79
2019-04-16T04:45:08.428Z,96.12
2019-04-16T04:46:03.344Z,96.03
2019-04-16T04:47:03.372Z,95.27
2019-04-16T04:48:03.404Z,94.70
2019-04-16T04:49:03.433Z,94.79
2019-04-16T04:50:04.359Z,94.51
2019-04-16T04:51:06.715Z,95.31
2019-04-16T04:52:03.519Z,96.08
2019-04-16T04:53:03.550Z,94.46
2019-04-16T04:54:03.579Z,94.42
2019-04-16T04:55:03.610Z,95.31
2019-04-16T04:56:03.638Z,94.74
2019-04-16T04:57:03.671Z,94.18
2019-04-16T04:58:03.704Z,94.56
2019-04-16T04:59:05.188Z,93.89
2019-04-16T05:00:05.655Z,93.70
2019-04-16T05:01:03.791Z,93.99
2019-04-16T05:02:03.822Z,94.08
2019-04-16T05:03:03.852Z,95.51
2019-04-16T05:04:03.880Z,95.22
2019-04-16T05:05:03.915Z,94.93
2019-04-16T05:06:03.943Z,95.22
2019-04-16T05:07:04.920Z,94.65
2019-04-16T05:08:04.001Z,94.18
2019-04-16T05:09:04.036Z,94.08
2019-04-16T05:10:04.568Z,94.56
2019-04-16T05:11:04.093Z,93.51
2019-04-16T05:12:04.124Z,93.89
2019-04-16T05:13:04.155Z,94.18
2019-04-16T05:14:04.188Z,93.89
2019-04-16T05:15:04.225Z,94.65
2019-04-16T05:16:06.965Z,93.89
2019-04-16T05:17:06.653Z,94.56
2019-04-16T05:18:05.948Z,94.37
2019-04-16T05:19:04.339Z,94.51
2019-04-16T05:20:04.371Z,93.08
2019-04-16T05:21:04.404Z,92.71
2019-04-16T05:22:04.436Z,92.71
2019-04-16T05:23:04.467Z,91.85
2019-04-16T05:24:04.498Z,91.33
2019-04-16T05:25:04.529Z,90.75
2019-04-16T05:26:05.328Z,88.42
2019-04-16T05:27:05.531Z,87.38
2019-04-16T05:28:04.619Z,86.19
2019-04-16T05:29:04.652Z,86.61
2019-04-16T05:30:04.683Z,86.14
2019-04-16T05:31:04.713Z,86.19
2019-04-16T05:32:04.750Z,87.28
2019-04-16T05:33:05.615Z,85.85
2019-04-16T05:34:06.012Z,80.22
2019-04-16T05:35:09.247Z,77.07
2019-04-16T05:36:04.878Z,77.11
2019-04-16T05:37:04.909Z,73.62
2019-04-16T05:38:04.941Z,72.67
2019-04-16T05:39:04.977Z,73.07
2019-04-16T05:40:05.007Z,73.17
2019-04-16T05:41:13.024Z,75.57
2019-04-16T05:42:05.073Z,78.04
2019-04-16T05:43:05.113Z,78.46
2019-04-16T05:44:05.145Z,77.19
2019-04-16T05:45:05.522Z,77.47
2019-04-16T05:46:05.467Z,77.26
2019-04-16T05:47:05.248Z,74.88
2019-04-16T05:48:05.299Z,71.77
2019-04-16T05:49:05.325Z,71.01
2019-04-16T05:50:05.355Z,70.92
2019-04-16T05:51:05.392Z,72.02
2019-04-16T05:52:05.434Z,74.04
2019-04-16T05:53:08.266Z,77.09
2019-04-16T05:54:05.518Z,74.75
2019-04-16T05:55:05.540Z,75.13
2019-04-16T05:56:05.572Z,73.74
2019-04-16T05:57:05.610Z,73.99
2019-04-16T05:58:05.648Z,72.50
2019-04-16T05:59:05.683Z,71.36
2019-04-16T06:00:09.418Z,71.98
2019-04-16T06:01:05.758Z,72.69
2019-04-16T06:02:05.795Z,72.48
2019-04-16T06:03:05.828Z,69.52
2019-04-16T06:04:05.866Z,70.00
2019-04-16T06:05:05.903Z,69.87
2019-04-16T06:06:05.941Z,71.07
2019-04-16T06:07:07.666Z,71.93
2019-04-16T06:08:06.302Z,70.53
2019-04-16T06:09:06.054Z,70.25
2019-04-16T06:10:06.967Z,71.20
2019-04-16T06:11:06.130Z,71.39
2019-04-16T06:12:08.891Z,71.14
2019-04-16T06:13:06.204Z,68.76
2019-04-16T06:14:06.238Z,68.76
2019-04-16T06:15:06.290Z,67.65
2019-04-16T06:16:06.320Z,65.93
2019-04-16T06:17:06.354Z,65.30
2019-04-16T06:18:06.389Z,64.53
2019-04-16T06:19:08.520Z,63.89
2019-04-16T06:20:06.467Z,62.01
2019-04-16T06:21:06.505Z,62.84
2019-04-16T06:22:06.554Z,62.71
2019-04-16T06:23:06.580Z,63.07
2019-04-16T06:24:06.618Z,65.55
2019-04-16T06:25:09.738Z,65.55
2019-04-16T06:26:06.697Z,63.83
2019-04-16T06:27:06.736Z,65.58
2019-04-16T06:28:06.772Z,66.85
2019-04-16T06:29:06.818Z,66.53
2019-04-16T06:30:06.850Z,66.28
2019-04-16T06:31:10.065Z,65.52
2019-04-16T06:32:08.428Z,66.28
2019-04-16T06:33:06.965Z,65.67
2019-04-16T06:34:07.008Z,67.20
2019-04-16T06:35:07.042Z,66.94
2019-04-16T06:36:07.084Z,65.80
2019-04-16T06:37:07.119Z,65.33
2019-04-16T06:38:07.158Z,67.16
2019-04-16T06:39:07.198Z,68.44
2019-04-16T06:40:07.236Z,67.61
2019-04-16T06:41:07.278Z,66.85
2019-04-16T06:42:07.313Z,65.74
2019-04-16T06:43:07.363Z,62.75
2019-04-16T06:44:07.390Z,63.23
2019-04-16T06:45:07.427Z,62.75
2019-04-16T06:46:08.546Z,64.34
2019-04-16T06:47:10.528Z,64.94
2019-04-16T06:48:12.698Z,64.43
2019-04-16T06:49:07.584Z,64.81
2019-04-16T06:50:07.622Z,65.29
2019-04-16T06:51:11.675Z,65.99
2019-04-16T06:52:07.701Z,64.18
2019-04-16T06:53:07.738Z,63.04
2019-04-16T06:54:07.776Z,63.51
2019-04-16T06:55:07.814Z,63.13
2019-04-16T06:56:08.760Z,63.23
2019-04-16T06:57:09.720Z,62.08
2019-04-16T06:58:07.931Z,62.37
2019-04-16T06:59:07.969Z,62.68
2019-04-16T07:00:08.012Z,62.02
2019-04-16T07:01:08.048Z,61.83
2019-04-16T07:02:10.547Z,59.12
2019-04-16T07:03:08.125Z,60.78
2019-04-16T07:04:08.171Z,61.38
2019-04-16T07:05:08.204Z,59.47
2019-04-16T07:06:08.246Z,60.39
2019-04-16T07:07:09.441Z,60.64
2019-04-16T07:08:08.323Z,60.04
2019-04-16T07:09:08.362Z,63.23
2019-04-16T07:10:08.403Z,63.07
2019-04-16T07:11:08.439Z,62.88
2019-04-16T07:12:08.480Z,63.67
2019-04-16T07:13:11.186Z,65.48
2019-04-16T07:14:08.560Z,64.47
2019-04-16T07:15:08.601Z,62.30
2019-04-16T07:16:08.638Z,61.69
2019-04-16T07:17:08.680Z,60.64
2019-04-16T07:18:08.718Z,57.81
2019-04-16T07:19:11.221Z,57.14
2019-04-16T07:20:13.090Z,57.84
2019-04-16T07:21:08.839Z,54.18
2019-04-16T07:22:08.880Z,55.23
2019-04-16T07:23:08.920Z,56.47
2019-04-16T07:24:09.015Z,56.63
2019-04-16T07:25:09.134Z,58.14
2019-04-16T07:26:13.562Z,58.01
2019-04-16T07:27:09.119Z,58.42
2019-04-16T07:28:09.124Z,58.23
2019-04-16T07:29:09.276Z,58.99
2019-04-16T07:30:09.459Z,57.59
2019-04-16T07:31:13.267Z,58.14
2019-04-16T07:32:09.288Z,58.04
2019-04-16T07:33:09.328Z,59.88
2019-04-16T07:34:09.415Z,60.42
2019-04-16T07:35:09.410Z,60.07
2019-04-16T07:36:09.456Z,58.86
2019-04-16T07:37:09.495Z,57.62
2019-04-16T07:38:11.566Z,55.64
2019-04-16T07:39:09.598Z,54.04
2019-04-16T07:40:10.469Z,53.20
2019-04-16T07:41:12.104Z,53.73
2019-04-16T07:43:09.745Z,55.07
2019-04-16T07:43:47.060Z,53.18
2019-04-16T07:44:11.097Z,55.45
2019-04-16T07:45:12.491Z,55.93
2019-04-16T07:46:09.868Z,56.53
2019-04-16T07:47:09.912Z,54.52
2019-04-16T07:48:09.955Z,53.97
2019-04-16T07:49:09.999Z,52.25
2019-04-16T07:50:10.038Z,55.07
2019-04-16T07:51:10.118Z,57.93
2019-04-16T07:52:12.200Z,58.45
2019-04-16T07:53:13.509Z,61.19
2019-04-16T07:54:10.210Z,63.16
2019-04-16T07:55:10.494Z,60.90
2019-04-16T07:56:10.296Z,59.50
2019-04-16T07:57:10.343Z,60.93
2019-04-16T07:58:10.377Z,60.49
2019-04-16T07:59:10.420Z,57.43
2019-04-16T08:00:10.464Z,56.76
2019-04-16T08:01:12.745Z,57.78
2019-04-16T08:02:10.545Z,59.81
2019-04-16T08:03:10.587Z,59.81
2019-04-16T08:04:10.631Z,56.88
2019-04-16T08:05:10.675Z,56.05
2019-04-16T08:06:14.298Z,56.62
2019-04-16T08:07:10.757Z,55.76
2019-04-16T08:08:10.802Z,55.47
2019-04-16T08:09:10.845Z,55.88
2019-04-16T08:10:10.883Z,55.68
2019-04-16T08:11:11.114Z,58.64
2019-04-16T08:12:28.652Z,59.69
2019-04-16T08:13:13.932Z,58.38
2019-04-16T08:14:14.551Z,55.76
2019-04-16T08:15:14.614Z,55.47
2019-04-16T08:16:11.360Z,54.78
2019-04-16T08:17:11.189Z,55.64
2019-04-16T08:18:11.224Z,53.92
2019-04-16T08:19:12.238Z,55.45
2019-04-16T08:20:11.313Z,55.32
2019-04-16T08:21:12.486Z,58.26
2019-04-16T08:22:15.475Z,56.60
2019-04-16T08:23:11.439Z,56.60
2019-04-16T08:24:11.480Z,56.21
2019-04-16T08:25:11.524Z,53.97
2019-04-16T08:26:13.678Z,52.34
2019-04-16T08:27:18.065Z,53.20
2019-04-16T08:28:11.656Z,50.96
2019-04-16T08:29:11.696Z,49.95
2019-04-16T08:30:12.034Z,51.22
2019-04-16T08:31:12.752Z,50.70
2019-04-16T08:32:12.904Z,51.46
2019-04-16T08:33:11.896Z,52.77
2019-04-16T08:34:11.912Z,54.78
2019-04-16T08:35:11.955Z,53.25
2019-04-16T08:36:11.998Z,52.39
2019-04-16T08:37:12.046Z,53.37
2019-04-16T08:38:12.087Z,51.56
2019-04-16T08:39:12.136Z,53.73
2019-04-16T08:40:13.143Z,53.89
2019-04-16T08:41:13.145Z,54.97
2019-04-16T08:42:12.263Z,54.23
2019-04-16T08:43:12.303Z,51.68
2019-04-16T08:44:12.351Z,51.20
2019-04-16T08:45:12.395Z,50.93
2019-04-16T08:46:12.440Z,52.15
2019-04-16T08:47:12.982Z,51.97
2019-04-16T08:48:17.036Z,51.42
2019-04-16T08:49:15.049Z,51.68
2019-04-16T08:50:12.691Z,51.51
2019-04-16T08:51:12.659Z,50.48
2019-04-16T08:52:12.706Z,50.41
2019-04-16T08:53:14.254Z,50.32
2019-04-16T08:54:17.676Z,49.43
2019-04-16T08:55:12.879Z,50.93
2019-04-16T08:56:12.884Z,52.61
2019-04-16T08:57:12.931Z,53.16
2019-04-16T08:58:13.007Z,55.83
2019-04-16T08:59:13.020Z,52.51
2019-04-16T09:00:15.183Z,52.28
2019-04-16T09:01:15.463Z,50.93
2019-04-16T09:02:13.156Z,50.38
2019-04-16T09:03:15.376Z,49.26
2019-04-16T09:04:13.244Z,47.53
2019-04-16T09:05:13.292Z,47.99
2019-04-16T09:06:14.167Z,50.07
2019-04-16T09:07:16.362Z,50.58
2019-04-16T09:08:13.825Z,49.07
2019-04-16T09:09:18.262Z,48.09
2019-04-16T09:10:18.130Z,50.29
2019-04-16T09:11:23.246Z,48.97
2019-04-16T09:12:13.607Z,47.75
2019-04-16T09:13:15.269Z,46.79
2019-04-16T09:14:13.771Z,46.36
2019-04-16T09:15:13.766Z,47.13
2019-04-16T09:16:13.791Z,49.21
2019-04-16T09:17:13.835Z,49.76
2019-04-16T09:18:13.883Z,50.91
2019-04-16T09:19:13.927Z,50.05
2019-04-16T09:20:13.973Z,51.07
2019-04-16T09:21:14.018Z,52.32
2019-04-16T09:22:16.843Z,49.98
2019-04-16T09:23:14.110Z,49.31
2019-04-16T09:24:14.156Z,49.00
2019-04-16T09:25:14.242Z,49.09
2019-04-16T09:26:15.640Z,49.95
2019-04-16T09:27:14.292Z,50.05
2019-04-16T09:28:25.209Z,49.88
2019-04-16T09:29:14.384Z,48.44
2019-04-16T09:30:17.828Z,48.38
2019-04-16T09:31:14.478Z,47.61
2019-04-16T09:32:14.528Z,44.49
2019-04-16T09:33:14.573Z,45.90
2019-04-16T09:34:14.611Z,46.46
2019-04-16T09:35:19.758Z,46.58
2019-04-16T09:36:14.705Z,49.55
2019-04-16T09:37:14.750Z,48.39
2019-04-16T09:38:14.795Z,48.71
2019-04-16T09:39:14.844Z,46.08
2019-04-16T09:40:17.675Z,45.62
2019-04-16T09:41:14.933Z,45.89
2019-04-16T09:42:14.979Z,46.36
2019-04-16T09:43:17.730Z,45.69
2019-04-16T09:44:15.078Z,45.43
2019-04-16T09:45:15.132Z,43.82
2019-04-16T09:46:21.185Z,43.27
2019-04-16T09:47:15.324Z,42.23
2019-04-16T09:48:15.258Z,40.60
2019-04-16T09:49:15.305Z,39.85
2019-04-16T09:50:15.346Z,39.95
2019-04-16T09:51:19.233Z,39.73
2019-04-16T09:52:15.444Z,39.35
2019-04-16T09:53:15.487Z,39.73
2019-04-16T09:54:15.530Z,38.95
2019-04-16T09:55:19.050Z,40.27
2019-04-16T09:56:15.623Z,41.86
2019-04-16T09:57:15.837Z,41.69
2019-04-16T09:58:15.717Z,43.47
2019-04-16T09:59:16.721Z,45.38
2019-04-16T10:00:17.089Z,42.53
2019-04-16T10:01:15.858Z,43.37
2019-04-16T10:02:15.900Z,43.87
2019-04-16T10:03:15.953Z,43.49
2019-04-16T10:04:16.009Z,43.39
2019-04-16T10:05:16.045Z,43.13
2019-04-16T10:06:16.085Z,41.93
2019-04-16T10:07:16.134Z,43.20
2019-04-16T10:08:16.176Z,42.55
2019-04-16T10:09:19.750Z,41.88
2019-04-16T10:10:16.284Z,41.44
2019-04-16T10:11:18.500Z,40.64
2019-04-16T10:12:16.449Z,41.04
2019-04-16T10:13:29.648Z,40.37
2019-04-16T10:14:16.453Z,39.91
2019-04-16T10:15:16.580Z,39.72
2019-04-16T10:16:16.770Z,38.56
2019-04-16T10:17:16.589Z,39.79
2019-04-16T10:18:16.691Z,39.62
2019-04-16T10:19:16.683Z,40.96
2019-04-16T10:20:16.732Z,39.33
2019-04-16T10:21:19.680Z,39.70
2019-04-16T10:22:16.840Z,40.17
2019-04-16T10:23:16.867Z,41.21
2019-04-16T10:24:16.931Z,41.21
2019-04-16T10:25:16.957Z,40.42
2019-04-16T10:26:17.174Z,42.07
2019-04-16T10:27:17.051Z,41.42
2019-04-16T10:28:17.112Z,42.65
2019-04-16T10:29:17.195Z,41.71
2019-04-16T10:30:17.418Z,40.67
2019-04-16T10:31:17.239Z,40.20
2019-04-16T10:32:18.249Z,39.45
2019-04-16T10:33:17.322Z,41.66
2019-04-16T10:34:17.367Z,40.60
2019-04-16T10:35:17.416Z,39.06
2019-04-16T10:36:17.467Z,38.59
2019-04-16T10:37:17.689Z,39.72
2019-04-16T10:38:17.569Z,40.67
2019-04-16T10:39:17.605Z,39.73
2019-04-16T10:40:17.836Z,40.20
2019-04-16T10:41:17.697Z,40.02
2019-04-16T10:42:17.764Z,39.45
2019-04-16T10:43:17.813Z,39.01
2019-04-16T10:44:17.869Z,38.62
2019-04-16T10:45:17.876Z,39.49
2019-04-16T10:46:17.950Z,38.41
2019-04-16T10:47:19.903Z,38.78
2019-04-16T10:48:18.032Z,40.00
2019-04-16T10:49:18.065Z,39.54
2019-04-16T10:50:18.106Z,39.33
2019-04-16T10:51:18.157Z,39.79
2019-04-16T10:52:18.204Z,40.54
2019-04-16T10:53:18.244Z,39.31
2019-04-16T10:54:18.287Z,38.66
2019-04-16T10:55:18.751Z,38.47
2019-04-16T10:56:21.180Z,39.53
2019-04-16T10:57:18.427Z,39.43
2019-04-16T10:58:18.475Z,39.31
2019-04-16T10:59:18.519Z,39.60
2019-04-16T11:00:18.566Z,39.87
2019-04-16T11:01:18.640Z,41.00
2019-04-16T11:02:18.688Z,41.33
2019-04-16T11:03:18.731Z,40.58
2019-04-16T11:04:18.757Z,40.70
2019-04-16T11:05:20.073Z,37.99
2019-04-16T11:06:18.850Z,38.37
2019-04-16T11:07:18.917Z,39.60
2019-04-16T11:08:18.955Z,40.56
2019-04-16T11:09:19.006Z,40.39
2019-04-16T11:10:19.034Z,40.48
2019-04-16T11:11:19.080Z,40.47
2019-04-16T11:12:19.889Z,42.47
2019-04-16T11:13:19.164Z,42.19
2019-04-16T11:14:19.206Z,40.10
2019-04-16T11:15:19.252Z,40.02
2019-04-16T11:16:19.386Z,41.00
2019-04-16T11:17:19.349Z,42.17
2019-04-16T11:18:19.391Z,42.70
2019-04-16T11:19:19.435Z,44.13
2019-04-16T11:20:19.484Z,43.41
2019-04-16T11:21:19.540Z,42.91
2019-04-16T11:22:19.587Z,43.97
2019-04-16T11:23:19.652Z,44.09
2019-04-16T11:24:20.577Z,43.68
2019-04-16T11:25:19.714Z,44.71
2019-04-16T11:26:19.754Z,44.31
2019-04-16T11:27:19.803Z,45.17
2019-04-16T11:28:19.870Z,47.08
2019-04-16T11:29:19.896Z,45.57
2019-04-16T11:30:19.949Z,43.68
2019-04-16T11:31:20.011Z,42.94
2019-04-16T11:32:20.034Z,43.13
2019-04-16T11:33:20.072Z,42.46
2019-04-16T11:34:20.124Z,42.07
2019-04-16T11:35:22.985Z,41.38
2019-04-16T11:36:21.099Z,43.27
2019-04-16T11:37:20.251Z,43.08
2019-04-16T11:38:20.322Z,43.39
2019-04-16T11:39:20.341Z,41.69
2019-04-16T11:40:20.389Z,40.87
2019-04-16T11:41:20.431Z,39.73
2019-04-16T11:42:20.478Z,38.29
2019-04-16T11:43:20.563Z,38.37
2019-04-16T11:44:20.566Z,37.18
2019-04-16T11:45:20.621Z,38.45
2019-04-16T11:46:20.664Z,38.28
2019-04-16T11:47:20.705Z,35.89
2019-04-16T11:48:20.772Z,35.26
2019-04-16T11:49:20.800Z,34.88
2019-04-16T11:50:20.942Z,35.18
2019-04-16T11:51:20.908Z,33.53
2019-04-16T11:52:20.936Z,34.49
2019-04-16T11:53:21.005Z,34.01
2019-04-16T11:54:21.046Z,33.98
2019-04-16T11:55:21.094Z,34.76
2019-04-16T11:56:22.680Z,34.95
2019-04-16T11:57:21.195Z,34.97
2019-04-16T11:58:21.245Z,34.70
2019-04-16T11:59:21.267Z,34.23
2019-04-16T12:00:21.337Z,32.78
2019-04-16T12:01:23.121Z,32.60
2019-04-16T12:02:21.393Z,32.60
2019-04-16T12:03:21.432Z,32.97
2019-04-16T12:04:21.523Z,35.71
2019-04-16T12:05:21.530Z,37.45
2019-04-16T12:06:28.311Z,37.15
2019-04-16T12:07:21.659Z,38.20
2019-04-16T12:08:21.678Z,38.41
2019-04-16T12:09:21.718Z,38.96
2019-04-16T12:10:21.779Z,39.81
2019-04-16T12:11:21.846Z,40.58
2019-04-16T12:12:21.984Z,40.58
2019-04-16T12:13:21.967Z,40.84
2019-04-16T12:14:30.649Z,41.13
2019-04-16T12:15:22.016Z,41.42
2019-04-16T12:16:24.375Z,41.42
2019-04-16T12:17:22.106Z,42.19
2019-04-16T12:18:22.134Z,42.38
2019-04-16T12:19:22.192Z,42.29
2019-04-16T12:20:22.225Z,43.44
2019-04-16T12:21:22.269Z,43.49
2019-04-16T12:22:22.338Z,44.09
2019-04-16T12:23:22.400Z,43.51
2019-04-16T12:24:22.408Z,43.37
2019-04-16T12:25:22.543Z,45.00
2019-04-16T12:26:22.517Z,45.09
2019-04-16T12:27:22.543Z,45.04
2019-04-16T12:28:22.613Z,42.57
2019-04-16T12:29:23.264Z,41.04
2019-04-16T12:30:22.688Z,41.23
2019-04-16T12:31:22.724Z,41.42
2019-04-16T12:32:23.027Z,41.35
2019-04-16T12:33:22.892Z,40.48
2019-04-16T12:34:22.890Z,39.64
2019-04-16T12:35:22.928Z,40.12
2019-04-16T12:36:23.125Z,38.96
2019-04-16T12:37:23.043Z,39.53
2019-04-16T12:38:23.063Z,39.53
2019-04-16T12:39:23.136Z,38.68
2019-04-16T12:40:23.182Z,38.10
2019-04-16T12:41:23.225Z,38.10
2019-04-16T12:42:23.235Z,38.39
2019-04-16T12:43:23.278Z,36.95
2019-04-16T12:44:24.454Z,38.47
2019-04-16T12:45:23.449Z,38.81
2019-04-16T12:46:23.415Z,41.55
2019-04-16T12:47:23.494Z,43.18
2019-04-16T12:48:23.518Z,43.27
2019-04-16T12:49:23.572Z,43.52
2019-04-16T12:50:23.647Z,44.67
2019-04-16T12:51:23.645Z,44.84
2019-04-16T12:52:23.689Z,46.27
2019-04-16T12:53:23.784Z,46.27